sensor_id;sensor_type;location;lat;lon;timestamp;pressure;altitude;pressure_sealevel;temperature;humidity
61697;BME280;47610;52.252;20.922;2023-05-20T00:03:18;101393.42;;;13.53;100.00
61697;BME280;47610;52.252;20.922;2023-05-20T00:08:21;101386.43;;;13.47;100.00
61697;BME280;47610;52.252;20.922;2023-05-20T00:13:24;101386.02;;;13.40;100.00
61697;BME280;47610;52.252;20.922;2023-05-20T00:18:27;101384.87;;;13.32;100.00
61697;BME280;47610;52.252;20.922;2023-05-20T00:23:31;101378.59;;;13.25;100.00
61697;BME280;47610;52.252;20.922;2023-05-20T00:28:34;101376.78;;;13.21;100.00
61697;BME280;47610;52.252;20.922;2023-05-20T00:33:37;101382.52;;;13.20;100.00
61697;BME280;47610;52.252;20.922;2023-05-20T00:38:40;101377.88;;;13.19;100.00
61697;BME280;47610;52.252;20.922;2023-05-20T00:43:44;101371.95;;;13.19;100.00
61697;BME280;47610;52.252;20.922;2023-05-20T00:48:47;101370.00;;;13.16;100.00
61697;BME280;47610;52.252;20.922;2023-05-20T00:53:51;101370.65;;;13.13;100.00
61697;BME280;47610;52.252;20.922;2023-05-20T00:58:54;101373.52;;;13.10;100.00
61697;BME280;47610;52.252;20.922;2023-05-20T01:03:57;101374.83;;;13.07;100.00
61697;BME280;47610;52.252;20.922;2023-05-20T01:09:01;101377.86;;;13.04;100.00
61697;BME280;47610;52.252;20.922;2023-05-20T01:14:07;101377.34;;;13.02;100.00
61697;BME280;47610;52.252;20.922;2023-05-20T01:19:32;101376.45;;;13.00;100.00
61697;BME280;47610;52.252;20.922;2023-05-20T01:24:37;101375.50;;;12.98;100.00
61697;BME280;47610;52.252;20.922;2023-05-20T01:29:41;101375.52;;;12.95;100.00
61697;BME280;47610;52.252;20.922;2023-05-20T01:34:45;101373.67;;;12.90;100.00
61697;BME280;47610;52.252;20.922;2023-05-20T01:39:51;101373.05;;;12.88;100.00
61697;BME280;47610;52.252;20.922;2023-05-20T01:44:55;101372.27;;;12.85;100.00
61697;BME280;47610;52.252;20.922;2023-05-20T01:49:58;101367.94;;;12.82;100.00
61697;BME280;47610;52.252;20.922;2023-05-20T01:55:02;101362.11;;;12.78;100.00
61697;BME280;47610;52.252;20.922;2023-05-20T02:00:07;101357.95;;;12.77;100.00
61697;BME280;47610;52.252;20.922;2023-05-20T02:05:11;101350.88;;;12.75;100.00
61697;BME280;47610;52.252;20.922;2023-05-20T02:10:14;101352.03;;;12.74;100.00
61697;BME280;47610;52.252;20.922;2023-05-20T02:15:18;101353.13;;;12.73;100.00
61697;BME280;47610;52.252;20.922;2023-05-20T02:20:21;101355.73;;;12.73;100.00
61697;BME280;47610;52.252;20.922;2023-05-20T02:25:24;101359.64;;;12.72;100.00
61697;BME280;47610;52.252;20.922;2023-05-20T02:30:27;101362.34;;;12.72;100.00
61697;BME280;47610;52.252;20.922;2023-05-20T02:35:31;101360.52;;;12.73;100.00
61697;BME280;47610;52.252;20.922;2023-05-20T02:40:34;101363.23;;;12.73;100.00
61697;BME280;47610;52.252;20.922;2023-05-20T02:45:37;101368.48;;;12.75;100.00
61697;BME280;47610;52.252;20.922;2023-05-20T02:50:40;101371.48;;;12.74;100.00
61697;BME280;47610;52.252;20.922;2023-05-20T02:55:46;101368.49;;;12.74;100.00
61697;BME280;47610;52.252;20.922;2023-05-20T03:00:49;101366.16;;;12.73;100.00
61697;BME280;47610;52.252;20.922;2023-05-20T03:05:52;101364.08;;;12.74;100.00
61697;BME280;47610;52.252;20.922;2023-05-20T03:10:55;101360.92;;;12.74;100.00
61697;BME280;47610;52.252;20.922;2023-05-20T03:15:58;101363.25;;;12.74;100.00
61697;BME280;47610;52.252;20.922;2023-05-20T03:21:02;101364.61;;;12.74;100.00
61697;BME280;47610;52.252;20.922;2023-05-20T03:26:05;101367.30;;;12.76;100.00
61697;BME280;47610;52.252;20.922;2023-05-20T03:31:08;101370.57;;;12.78;100.00
61697;BME280;47610;52.252;20.922;2023-05-20T03:36:12;101372.85;;;12.82;100.00
61697;BME280;47610;52.252;20.922;2023-05-20T03:41:15;101369.66;;;12.85;100.00
61697;BME280;47610;52.252;20.922;2023-05-20T03:46:18;101374.98;;;12.88;100.00
61697;BME280;47610;52.252;20.922;2023-05-20T03:51:21;101368.10;;;12.92;100.00
61697;BME280;47610;52.252;20.922;2023-05-20T03:56:24;101366.96;;;12.96;100.00
61697;BME280;47610;52.252;20.922;2023-05-20T04:01:28;101368.28;;;13.02;100.00
61697;BME280;47610;52.252;20.922;2023-05-20T04:06:31;101369.95;;;13.04;100.00
61697;BME280;47610;52.252;20.922;2023-05-20T04:11:34;101369.03;;;13.10;100.00
61697;BME280;47610;52.252;20.922;2023-05-20T04:16:37;101373.82;;;13.15;100.00
61697;BME280;47610;52.252;20.922;2023-05-20T04:21:43;101375.52;;;13.21;100.00
61697;BME280;47610;52.252;20.922;2023-05-20T04:26:46;101381.82;;;13.31;100.00
61697;BME280;47610;52.252;20.922;2023-05-20T04:31:49;101380.70;;;13.38;100.00
61697;BME280;47610;52.252;20.922;2023-05-20T04:36:52;101386.33;;;13.46;100.00
61697;BME280;47610;52.252;20.922;2023-05-20T04:41:55;101379.15;;;13.52;100.00
61697;BME280;47610;52.252;20.922;2023-05-20T04:46:59;101376.55;;;13.64;100.00
61697;BME280;47610;52.252;20.922;2023-05-20T04:52:02;101373.80;;;13.81;100.00
61697;BME280;47610;52.252;20.922;2023-05-20T04:57:05;101369.59;;;14.07;100.00
61697;BME280;47610;52.252;20.922;2023-05-20T05:02:09;101373.94;;;14.31;100.00
61697;BME280;47610;52.252;20.922;2023-05-20T05:07:12;101377.17;;;14.58;100.00
61697;BME280;47610;52.252;20.922;2023-05-20T05:12:15;101380.25;;;14.83;100.00
61697;BME280;47610;52.252;20.922;2023-05-20T05:17:18;101381.65;;;15.01;100.00
61697;BME280;47610;52.252;20.922;2023-05-20T05:22:21;101380.96;;;15.23;100.00
61697;BME280;47610;52.252;20.922;2023-05-20T05:27:24;101386.42;;;15.73;100.00
61697;BME280;47610;52.252;20.922;2023-05-20T05:32:28;101380.32;;;16.34;100.00
61697;BME280;47610;52.252;20.922;2023-05-20T05:37:31;101383.55;;;16.60;100.00
61697;BME280;47610;52.252;20.922;2023-05-20T05:42:34;101389.27;;;16.97;100.00
61697;BME280;47610;52.252;20.922;2023-05-20T05:47:37;101388.38;;;17.19;100.00
61697;BME280;47610;52.252;20.922;2023-05-20T05:52:40;101390.84;;;17.32;100.00
61697;BME280;47610;52.252;20.922;2023-05-20T05:57:44;101391.76;;;17.48;100.00
61697;BME280;47610;52.252;20.922;2023-05-20T06:02:47;101391.49;;;17.64;100.00
61697;BME280;47610;52.252;20.922;2023-05-20T06:07:50;101390.33;;;17.64;100.00
61697;BME280;47610;52.252;20.922;2023-05-20T06:12:53;101391.06;;;17.71;100.00
61697;BME280;47610;52.252;20.922;2023-05-20T06:17:57;101383.79;;;17.92;100.00
61697;BME280;47610;52.252;20.922;2023-05-20T06:23:00;101389.98;;;18.13;100.00
61697;BME280;47610;52.252;20.922;2023-05-20T06:28:03;101385.59;;;18.34;100.00
61697;BME280;47610;52.252;20.922;2023-05-20T06:33:06;101385.56;;;18.62;100.00
61697;BME280;47610;52.252;20.922;2023-05-20T06:38:10;101383.29;;;18.88;100.00
61697;BME280;47610;52.252;20.922;2023-05-20T06:43:13;101379.70;;;19.04;100.00
61697;BME280;47610;52.252;20.922;2023-05-20T06:48:16;101377.27;;;19.18;100.00
61697;BME280;47610;52.252;20.922;2023-05-20T06:53:19;101372.92;;;19.49;100.00
61697;BME280;47610;52.252;20.922;2023-05-20T06:58:22;101375.09;;;19.89;100.00
61697;BME280;47610;52.252;20.922;2023-05-20T07:03:26;101375.77;;;20.52;100.00
61697;BME280;47610;52.252;20.922;2023-05-20T07:08:29;101371.02;;;21.06;100.00
61697;BME280;47610;52.252;20.922;2023-05-20T07:13:32;101368.31;;;21.73;100.00
61697;BME280;47610;52.252;20.922;2023-05-20T07:18:35;101369.90;;;22.12;100.00
61697;BME280;47610;52.252;20.922;2023-05-20T07:23:38;101364.45;;;22.16;100.00
61697;BME280;47610;52.252;20.922;2023-05-20T07:28:42;101368.80;;;22.04;100.00
61697;BME280;47610;52.252;20.922;2023-05-20T07:33:45;101364.62;;;21.93;100.00
61697;BME280;47610;52.252;20.922;2023-05-20T07:38:48;101357.72;;;21.91;100.00
61697;BME280;47610;52.252;20.922;2023-05-20T07:43:51;101357.20;;;21.95;100.00
61697;BME280;47610;52.252;20.922;2023-05-20T07:48:54;101349.81;;;22.16;100.00
61697;BME280;47610;52.252;20.922;2023-05-20T07:53:58;101348.60;;;22.51;100.00
61697;BME280;47610;52.252;20.922;2023-05-20T07:59:01;101350.42;;;22.73;100.00
61697;BME280;47610;52.252;20.922;2023-05-20T08:04:04;101348.96;;;22.97;100.00
61697;BME280;47610;52.252;20.922;2023-05-20T08:09:07;101348.15;;;23.55;100.00
61697;BME280;47610;52.252;20.922;2023-05-20T08:14:11;101345.11;;;23.79;100.00
61697;BME280;47610;52.252;20.922;2023-05-20T08:19:14;101351.31;;;23.94;100.00
61697;BME280;47610;52.252;20.922;2023-05-20T08:24:17;101349.88;;;24.15;100.00
61697;BME280;47610;52.252;20.922;2023-05-20T08:29:20;101349.83;;;24.71;100.00
61697;BME280;47610;52.252;20.922;2023-05-20T08:34:24;101347.08;;;26.14;94.66
61697;BME280;47610;52.252;20.922;2023-05-20T08:39:27;101351.96;;;28.33;83.03
61697;BME280;47610;52.252;20.922;2023-05-20T08:44:30;101352.73;;;30.49;75.92
61697;BME280;47610;52.252;20.922;2023-05-20T08:49:34;101346.42;;;32.21;64.13
61697;BME280;47610;52.252;20.922;2023-05-20T08:54:38;101339.77;;;32.99;53.87
61697;BME280;47610;52.252;20.922;2023-05-20T08:59:45;101338.81;;;33.66;51.96
61697;BME280;47610;52.252;20.922;2023-05-20T09:04:48;101334.73;;;34.40;49.94
61697;BME280;47610;52.252;20.922;2023-05-20T09:09:52;101326.67;;;34.47;46.87
61697;BME280;47610;52.252;20.922;2023-05-20T09:14:56;101325.18;;;33.58;45.07
61697;BME280;47610;52.252;20.922;2023-05-20T09:19:59;101318.91;;;31.56;46.85
61697;BME280;47610;52.252;20.922;2023-05-20T09:25:00;101308.85;;;30.74;48.28
61697;BME280;47610;52.252;20.922;2023-05-20T09:30:07;101309.13;;;28.67;54.63
61697;BME280;47610;52.252;20.922;2023-05-20T09:35:13;101309.98;;;27.24;61.98
61697;BME280;47610;52.252;20.922;2023-05-20T09:40:17;101303.83;;;26.37;68.97
61697;BME280;47610;52.252;20.922;2023-05-20T09:45:21;101297.84;;;26.48;72.54
61697;BME280;47610;52.252;20.922;2023-05-20T09:50:23;101293.63;;;26.64;72.31
61697;BME280;47610;52.252;20.922;2023-05-20T09:55:26;101291.45;;;25.96;73.29
61697;BME280;47610;52.252;20.922;2023-05-20T10:00:30;101289.65;;;25.31;76.21
61697;BME280;47610;52.252;20.922;2023-05-20T10:05:37;101288.08;;;25.15;80.05
61697;BME280;47610;52.252;20.922;2023-05-20T10:10:45;101286.82;;;24.99;81.79
61697;BME280;47610;52.252;20.922;2023-05-20T10:21:22;101285.23;;;24.73;84.46
61697;BME280;47610;52.252;20.922;2023-05-20T10:26:35;101285.40;;;24.59;85.53
61697;BME280;47610;52.252;20.922;2023-05-20T10:31:44;101278.65;;;24.42;87.62
61697;BME280;47610;52.252;20.922;2023-05-20T10:36:59;101272.98;;;24.34;89.15
61697;BME280;47610;52.252;20.922;2023-05-20T10:42:09;101268.17;;;24.12;89.79
61697;BME280;47610;52.252;20.922;2023-05-20T10:47:13;101259.86;;;23.89;90.87
61697;BME280;47610;52.252;20.922;2023-05-20T10:52:16;101248.43;;;23.90;91.99
61697;BME280;47610;52.252;20.922;2023-05-20T10:57:20;101238.66;;;24.02;92.81
61697;BME280;47610;52.252;20.922;2023-05-20T11:02:24;101235.55;;;24.01;91.71
61697;BME280;47610;52.252;20.922;2023-05-20T11:07:28;101235.16;;;24.08;91.83
61697;BME280;47610;52.252;20.922;2023-05-20T11:12:32;101223.52;;;24.10;92.65
61697;BME280;47610;52.252;20.922;2023-05-20T11:17:36;101216.09;;;24.23;93.15
61697;BME280;47610;52.252;20.922;2023-05-20T11:22:40;101212.73;;;24.37;90.62
61697;BME280;47610;52.252;20.922;2023-05-20T11:27:43;101207.52;;;24.33;88.24
61697;BME280;47610;52.252;20.922;2023-05-20T11:32:54;101210.34;;;24.01;88.49
61697;BME280;47610;52.252;20.922;2023-05-20T11:38:01;101202.41;;;23.78;89.79
61697;BME280;47610;52.252;20.922;2023-05-20T11:43:05;101210.23;;;23.68;91.90
61697;BME280;47610;52.252;20.922;2023-05-20T11:48:09;101210.16;;;23.66;92.33
61697;BME280;47610;52.252;20.922;2023-05-20T11:53:15;101211.24;;;23.59;91.70
61697;BME280;47610;52.252;20.922;2023-05-20T11:58:20;101209.44;;;23.80;92.37
61697;BME280;47610;52.252;20.922;2023-05-20T12:03:23;101205.61;;;23.92;91.85
61697;BME280;47610;52.252;20.922;2023-05-20T12:08:26;101201.81;;;24.10;90.52
61697;BME280;47610;52.252;20.922;2023-05-20T12:13:30;101189.10;;;24.16;87.22
61697;BME280;47610;52.252;20.922;2023-05-20T12:18:33;101187.94;;;24.25;89.09
61697;BME280;47610;52.252;20.922;2023-05-20T12:23:36;101186.84;;;24.44;89.15
61697;BME280;47610;52.252;20.922;2023-05-20T12:28:39;101191.19;;;24.54;86.95
61697;BME280;47610;52.252;20.922;2023-05-20T12:33:43;101190.91;;;24.62;86.65
61697;BME280;47610;52.252;20.922;2023-05-20T12:38:46;101188.38;;;24.73;87.04
61697;BME280;47610;52.252;20.922;2023-05-20T12:43:49;101189.50;;;24.85;85.85
61697;BME280;47610;52.252;20.922;2023-05-20T12:48:52;101182.38;;;24.79;84.33
61697;BME280;47610;52.252;20.922;2023-05-20T12:53:55;101184.59;;;24.58;84.47
61697;BME280;47610;52.252;20.922;2023-05-20T12:58:59;101177.86;;;24.45;84.72
61697;BME280;47610;52.252;20.922;2023-05-20T13:04:02;101165.20;;;24.22;85.99
61697;BME280;47610;52.252;20.922;2023-05-20T13:09:05;101163.38;;;24.02;86.78
61697;BME280;47610;52.252;20.922;2023-05-20T13:14:08;101156.59;;;23.89;88.53
61697;BME280;47610;52.252;20.922;2023-05-20T13:19:11;101151.30;;;23.81;89.51
61697;BME280;47610;52.252;20.922;2023-05-20T13:24:15;101155.63;;;23.74;90.62
61697;BME280;47610;52.252;20.922;2023-05-20T13:29:18;101153.90;;;23.73;92.05
61697;BME280;47610;52.252;20.922;2023-05-20T13:34:21;101152.47;;;23.74;92.48
61697;BME280;47610;52.252;20.922;2023-05-20T13:39:25;101143.34;;;23.70;93.64
61697;BME280;47610;52.252;20.922;2023-05-20T13:44:28;101142.23;;;23.61;92.79
61697;BME280;47610;52.252;20.922;2023-05-20T13:49:31;101143.41;;;23.52;93.20
61697;BME280;47610;52.252;20.922;2023-05-20T13:54:34;101138.96;;;23.43;93.67
61697;BME280;47610;52.252;20.922;2023-05-20T13:59:37;101136.75;;;23.31;95.43
61697;BME280;47610;52.252;20.922;2023-05-20T14:04:41;101132.48;;;23.20;96.54
61697;BME280;47610;52.252;20.922;2023-05-20T14:09:44;101131.93;;;23.12;97.89
61697;BME280;47610;52.252;20.922;2023-05-20T14:14:47;101129.22;;;23.09;99.00
61697;BME280;47610;52.252;20.922;2023-05-20T14:19:50;101121.61;;;23.08;98.82
61697;BME280;47610;52.252;20.922;2023-05-20T14:24:53;101118.23;;;23.06;98.23
61697;BME280;47610;52.252;20.922;2023-05-20T14:29:57;101122.77;;;23.05;98.51
61697;BME280;47610;52.252;20.922;2023-05-20T14:35:00;101116.66;;;23.05;98.30
61697;BME280;47610;52.252;20.922;2023-05-20T14:40:04;101116.86;;;23.04;97.30
61697;BME280;47610;52.252;20.922;2023-05-20T14:45:10;101113.04;;;23.08;96.98
61697;BME280;47610;52.252;20.922;2023-05-20T14:50:14;101108.30;;;23.17;96.89
61697;BME280;47610;52.252;20.922;2023-05-20T14:55:17;101103.90;;;23.21;95.51
61697;BME280;47610;52.252;20.922;2023-05-20T15:00:20;101104.42;;;23.18;91.76
61697;BME280;47610;52.252;20.922;2023-05-20T15:05:24;101101.28;;;23.14;92.17
61697;BME280;47610;52.252;20.922;2023-05-20T15:10:27;101100.24;;;23.09;92.61
61697;BME280;47610;52.252;20.922;2023-05-20T15:15:30;101094.92;;;23.00;93.14
61697;BME280;47610;52.252;20.922;2023-05-20T15:20:33;101095.30;;;22.94;94.94
61697;BME280;47610;52.252;20.922;2023-05-20T15:25:37;101086.60;;;22.89;96.96
61697;BME280;47610;52.252;20.922;2023-05-20T15:30:40;101088.68;;;22.83;97.37
61697;BME280;47610;52.252;20.922;2023-05-20T15:35:43;101084.23;;;22.75;98.25
61697;BME280;47610;52.252;20.922;2023-05-20T15:40:46;101082.67;;;22.70;98.82
61697;BME280;47610;52.252;20.922;2023-05-20T15:45:50;101083.30;;;22.66;98.23
61697;BME280;47610;52.252;20.922;2023-05-20T15:50:53;101080.69;;;22.65;98.61
61697;BME280;47610;52.252;20.922;2023-05-20T15:55:56;101075.50;;;22.67;98.55
61697;BME280;47610;52.252;20.922;2023-05-20T16:00:59;101069.15;;;22.71;98.71
61697;BME280;47610;52.252;20.922;2023-05-20T16:06:03;101071.19;;;22.78;99.10
61697;BME280;47610;52.252;20.922;2023-05-20T16:11:06;101070.54;;;22.82;99.73
61697;BME280;47610;52.252;20.922;2023-05-20T16:16:09;101071.70;;;22.81;98.52
61697;BME280;47610;52.252;20.922;2023-05-20T16:21:12;101075.02;;;22.79;99.07
61697;BME280;47610;52.252;20.922;2023-05-20T16:26:16;101072.17;;;22.75;98.19
61697;BME280;47610;52.252;20.922;2023-05-20T16:31:19;101067.93;;;22.69;98.95
61697;BME280;47610;52.252;20.922;2023-05-20T16:36:22;101066.39;;;22.62;99.50
61697;BME280;47610;52.252;20.922;2023-05-20T16:41:26;101071.32;;;22.55;98.66
61697;BME280;47610;52.252;20.922;2023-05-20T16:46:29;101074.77;;;22.49;98.85
61697;BME280;47610;52.252;20.922;2023-05-20T16:51:32;101080.64;;;22.43;98.83
61697;BME280;47610;52.252;20.922;2023-05-20T16:56:35;101081.30;;;22.38;99.04
61697;BME280;47610;52.252;20.922;2023-05-20T17:01:38;101087.77;;;22.33;99.65
61697;BME280;47610;52.252;20.922;2023-05-20T17:06:42;101089.11;;;22.27;100.00
61697;BME280;47610;52.252;20.922;2023-05-20T17:11:45;101095.54;;;22.21;100.00
61697;BME280;47610;52.252;20.922;2023-05-20T17:16:48;101093.89;;;22.15;100.00
61697;BME280;47610;52.252;20.922;2023-05-20T17:21:51;101093.19;;;22.08;100.00
61697;BME280;47610;52.252;20.922;2023-05-20T17:26:54;101088.27;;;22.00;99.98
61697;BME280;47610;52.252;20.922;2023-05-20T17:31:57;101094.48;;;21.91;99.67
61697;BME280;47610;52.252;20.922;2023-05-20T17:37:01;101097.67;;;21.83;99.94
61697;BME280;47610;52.252;20.922;2023-05-20T17:42:04;101101.16;;;21.75;99.36
61697;BME280;47610;52.252;20.922;2023-05-20T17:47:07;101104.34;;;21.67;99.75
61697;BME280;47610;52.252;20.922;2023-05-20T17:52:11;101105.58;;;21.59;99.82
61697;BME280;47610;52.252;20.922;2023-05-20T17:57:14;101103.88;;;21.50;99.83
61697;BME280;47610;52.252;20.922;2023-05-20T18:02:17;101101.25;;;21.39;99.06
61697;BME280;47610;52.252;20.922;2023-05-20T18:07:20;101098.94;;;21.29;98.22
61697;BME280;47610;52.252;20.922;2023-05-20T18:12:23;101097.92;;;21.19;96.51
61697;BME280;47610;52.252;20.922;2023-05-20T18:17:27;101098.64;;;21.09;95.30
61697;BME280;47610;52.252;20.922;2023-05-20T18:22:30;101103.26;;;20.99;95.16
61697;BME280;47610;52.252;20.922;2023-05-20T18:27:33;101108.54;;;20.90;94.99
61697;BME280;47610;52.252;20.922;2023-05-20T18:32:36;101110.20;;;20.80;95.03
61697;BME280;47610;52.252;20.922;2023-05-20T18:37:39;101115.90;;;20.71;95.57
61697;BME280;47610;52.252;20.922;2023-05-20T18:42:43;101116.11;;;20.62;95.65
61697;BME280;47610;52.252;20.922;2023-05-20T18:47:46;101120.98;;;20.54;96.24
61697;BME280;47610;52.252;20.922;2023-05-20T18:52:49;101118.95;;;20.46;96.75
61697;BME280;47610;52.252;20.922;2023-05-20T18:57:52;101114.10;;;20.38;97.40
61697;BME280;47610;52.252;20.922;2023-05-20T19:02:55;101108.70;;;20.30;98.09
61697;BME280;47610;52.252;20.922;2023-05-20T19:07:59;101109.42;;;20.22;98.90
61697;BME280;47610;52.252;20.922;2023-05-20T19:13:02;101107.73;;;20.12;99.67
61697;BME280;47610;52.252;20.922;2023-05-20T19:18:05;101110.71;;;20.03;100.00
61697;BME280;47610;52.252;20.922;2023-05-20T19:23:08;101108.21;;;19.95;100.00
61697;BME280;47610;52.252;20.922;2023-05-20T19:28:11;101107.98;;;19.87;100.00
61697;BME280;47610;52.252;20.922;2023-05-20T19:33:15;101115.44;;;19.80;100.00
61697;BME280;47610;52.252;20.922;2023-05-20T19:38:18;101115.98;;;19.72;100.00
61697;BME280;47610;52.252;20.922;2023-05-20T19:43:21;101111.48;;;19.65;100.00
61697;BME280;47610;52.252;20.922;2023-05-20T19:48:24;101113.86;;;19.60;100.00
61697;BME280;47610;52.252;20.922;2023-05-20T19:53:27;101115.63;;;19.54;100.00
61697;BME280;47610;52.252;20.922;2023-05-20T19:58:31;101114.02;;;19.47;100.00
61697;BME280;47610;52.252;20.922;2023-05-20T20:03:35;101111.86;;;19.38;100.00
61697;BME280;47610;52.252;20.922;2023-05-20T20:08:38;101116.56;;;19.26;100.00
61697;BME280;47610;52.252;20.922;2023-05-20T20:13:41;101114.54;;;19.12;100.00
61697;BME280;47610;52.252;20.922;2023-05-20T20:18:44;101114.33;;;19.00;100.00
61697;BME280;47610;52.252;20.922;2023-05-20T20:23:48;101115.71;;;18.88;100.00
61697;BME280;47610;52.252;20.922;2023-05-20T20:28:51;101117.25;;;18.76;100.00
61697;BME280;47610;52.252;20.922;2023-05-20T20:33:54;101121.82;;;18.65;100.00
61697;BME280;47610;52.252;20.922;2023-05-20T20:38:58;101125.90;;;18.55;100.00
61697;BME280;47610;52.252;20.922;2023-05-20T20:44:01;101129.39;;;18.44;100.00
61697;BME280;47610;52.252;20.922;2023-05-20T20:49:04;101119.66;;;18.36;100.00
61697;BME280;47610;52.252;20.922;2023-05-20T20:54:07;101116.88;;;18.30;100.00
61697;BME280;47610;52.252;20.922;2023-05-20T20:59:11;101116.26;;;18.25;100.00
61697;BME280;47610;52.252;20.922;2023-05-20T21:04:14;101110.91;;;18.19;100.00
61697;BME280;47610;52.252;20.922;2023-05-20T21:09:17;101106.75;;;18.12;100.00
61697;BME280;47610;52.252;20.922;2023-05-20T21:14:20;101105.88;;;18.05;100.00
61697;BME280;47610;52.252;20.922;2023-05-20T21:19:24;101102.93;;;17.97;100.00
61697;BME280;47610;52.252;20.922;2023-05-20T21:24:27;101099.02;;;17.89;100.00
61697;BME280;47610;52.252;20.922;2023-05-20T21:29:30;101093.70;;;17.80;100.00
61697;BME280;47610;52.252;20.922;2023-05-20T21:34:33;101092.60;;;17.72;100.00
61697;BME280;47610;52.252;20.922;2023-05-20T21:39:36;101096.36;;;17.65;100.00
61697;BME280;47610;52.252;20.922;2023-05-20T21:44:40;101097.06;;;17.56;100.00
61697;BME280;47610;52.252;20.922;2023-05-20T21:49:43;101096.80;;;17.50;100.00
61697;BME280;47610;52.252;20.922;2023-05-20T21:54:46;101100.74;;;17.44;100.00
61697;BME280;47610;52.252;20.922;2023-05-20T21:59:49;101101.38;;;17.38;100.00
61697;BME280;47610;52.252;20.922;2023-05-20T22:04:52;101100.88;;;17.33;100.00
61697;BME280;47610;52.252;20.922;2023-05-20T22:09:55;101103.35;;;17.27;100.00
61697;BME280;47610;52.252;20.922;2023-05-20T22:14:59;101094.72;;;17.21;100.00
61697;BME280;47610;52.252;20.922;2023-05-20T22:20:02;101102.65;;;17.15;100.00
61697;BME280;47610;52.252;20.922;2023-05-20T22:25:07;101104.10;;;17.11;100.00
61697;BME280;47610;52.252;20.922;2023-05-20T22:30:12;101101.55;;;17.07;100.00
61697;BME280;47610;52.252;20.922;2023-05-20T22:35:15;101107.64;;;17.02;100.00
61697;BME280;47610;52.252;20.922;2023-05-20T22:40:18;101101.95;;;16.95;100.00
61697;BME280;47610;52.252;20.922;2023-05-20T22:45:22;101097.38;;;16.89;100.00
61697;BME280;47610;52.252;20.922;2023-05-20T22:50:25;101095.66;;;16.85;100.00
61697;BME280;47610;52.252;20.922;2023-05-20T22:55:28;101092.54;;;16.82;100.00
61697;BME280;47610;52.252;20.922;2023-05-20T23:00:31;101091.30;;;16.78;100.00
61697;BME280;47610;52.252;20.922;2023-05-20T23:05:34;101093.61;;;16.74;100.00
61697;BME280;47610;52.252;20.922;2023-05-20T23:10:38;101089.37;;;16.71;100.00
61697;BME280;47610;52.252;20.922;2023-05-20T23:15:41;101088.75;;;16.68;100.00
61697;BME280;47610;52.252;20.922;2023-05-20T23:20:44;101090.77;;;16.66;100.00
61697;BME280;47610;52.252;20.922;2023-05-20T23:25:47;101091.45;;;16.61;100.00
61697;BME280;47610;52.252;20.922;2023-05-20T23:30:51;101090.48;;;16.59;100.00
61697;BME280;47610;52.252;20.922;2023-05-20T23:35:54;101092.77;;;16.55;100.00
61697;BME280;47610;52.252;20.922;2023-05-20T23:40:57;101089.64;;;16.48;100.00
61697;BME280;47610;52.252;20.922;2023-05-20T23:46:00;101089.81;;;16.43;100.00
61697;BME280;47610;52.252;20.922;2023-05-20T23:51:04;101090.67;;;16.37;100.00
61697;BME280;47610;52.252;20.922;2023-05-20T23:56:07;101088.02;;;16.32;100.00
